Time;durP1;ratioP1;P1;durP2;ratioP2;P2;SDS_P1;SDS_P2;PMS_P1;PMS_P2;Temp;Humidity;BMP_temperature;BMP_pressure;BME280_temperature;BME280_humidity;BME280_pressure;Samples;Min_cycle;Max_cycle;Signal;HPM_P1;HPM_P2
2022/02/05 00:05:34;;;;;;;5.30;2.47;;;7.30;93.10;;;;;;5043846;28;20435;-84
2022/02/05 00:16:11;;;;;;;3.72;2.30;;;7.30;93.10;;;;;;5043345;28;20025;-86
2022/02/05 00:43:13;;;;;;;5.47;2.08;;;7.30;93.40;;;;;;5046177;28;20021;-85
2022/02/05 00:45:43;;;;;;;4.07;2.38;;;7.30;93.30;;;;;;5045748;28;20071;-86
2022/02/05 00:48:10;;;;;;;1.52;1.40;;;7.30;93.50;;;;;;5043740;28;20085;-86
2022/02/05 00:50:40;;;;;;;2.22;1.90;;;7.40;93.80;;;;;;5044355;28;20036;-86
2022/02/05 00:53:15;;;;;;;1.95;1.52;;;7.30;94.00;;;;;;5032426;28;20075;-86
2022/02/05 00:55:48;;;;;;;2.33;1.77;;;7.30;94.60;;;;;;5042666;28;20033;-85
2022/02/05 00:58:13;;;;;;;3.15;1.60;;;7.30;94.90;;;;;;5042740;28;20125;-84
2022/02/05 01:00:39;;;;;;;2.00;1.75;;;7.20;95.00;;;;;;5041073;28;20173;-85
2022/02/05 01:03:05;;;;;;;3.17;1.58;;;7.20;95.30;;;;;;5042740;28;20049;-84
2022/02/05 01:05:33;;;;;;;4.00;1.55;;;7.20;95.40;;;;;;5042963;28;20025;-85
2022/02/05 01:07:59;;;;;;;0.70;0.50;;;7.20;95.40;;;;;;5042344;28;20028;-85
2022/02/05 01:10:26;;;;;;;0.43;0.32;;;7.00;93.10;;;;;;5045612;28;20024;-84
2022/02/05 01:13:07;;;;;;;1.02;0.32;;;5.90;94.90;;;;;;5044999;28;20025;-83
2022/02/05 01:15:40;;;;;;;1.88;0.75;;;4.70;98.20;;;;;;5046786;28;20472;-84
2022/02/05 01:18:08;;;;;;;1.98;0.52;;;4.00;99.90;;;;;;5050739;28;20029;-83
2022/02/05 01:23:13;;;;;;;0.45;0.45;;;3.40;99.90;;;;;;5034609;28;20359;-84
2022/02/05 01:25:45;;;;;;;0.60;0.40;;;3.30;99.90;;;;;;5029689;28;20040;-85
2022/02/05 01:28:20;;;;;;;1.30;0.60;;;3.30;99.90;;;;;;5035100;28;20029;-85
2022/02/05 01:30:51;;;;;;;0.47;0.30;;;3.30;99.90;;;;;;5036034;28;20022;-85
2022/02/05 01:57:50;;;;;;;1.73;0.73;;;3.80;99.90;;;;;;4999976;28;20033;-84
2022/02/05 02:05:32;;;;;;;0.98;0.80;;;3.80;99.90;;;;;;5007442;28;20081;-83
2022/02/05 02:18:59;;;;;;;0.45;0.43;;;3.60;99.90;;;;;;5009732;28;20036;-85
2022/02/05 02:21:49;;;;;;;0.70;0.68;;;3.60;99.90;;;;;;5024786;28;20037;-85
2022/02/05 02:24:22;;;;;;;0.73;0.50;;;3.60;99.90;;;;;;5046263;28;20046;-86
2022/02/05 02:29:43;;;;;;;0.55;0.55;;;3.50;99.90;;;;;;5043126;28;20112;-84
2022/02/05 02:32:09;;;;;;;2.60;0.30;;;3.50;99.90;;;;;;5041688;28;20077;-84
2022/02/05 02:34:41;;;;;;;0.20;0.20;;;3.50;99.90;;;;;;5040968;28;20085;-83
2022/02/05 02:37:14;;;;;;;0.30;0.30;;;3.40;99.90;;;;;;5043254;28;20032;-83
2022/02/05 02:42:24;;;;;;;1.75;0.20;;;3.40;99.90;;;;;;5042659;28;20075;-82
2022/02/05 02:44:53;;;;;;;0.40;0.40;;;3.40;99.90;;;;;;5042553;28;20116;-82
2022/02/05 02:47:19;;;;;;;0.65;0.50;;;3.40;99.90;;;;;;5042701;28;20474;-84
2022/02/05 02:57:57;;;;;;;0.80;0.20;;;3.40;99.90;;;;;;5022420;28;20048;-82
2022/02/05 03:00:23;;;;;;;0.50;0.20;;;3.40;99.50;;;;;;5022547;28;20021;-81
2022/02/05 03:02:49;;;;;;;1.15;0.30;;;3.40;99.60;;;;;;5021302;28;20482;-83
2022/02/05 03:05:14;;;;;;;0.20;0.20;;;3.20;99.90;;;;;;5022379;28;20018;-83
2022/02/05 03:07:40;;;;;;;0.40;0.13;;;3.20;99.60;;;;;;5027140;28;20029;-83
2022/02/05 03:10:06;;;;;;;0.40;0.40;;;3.20;99.90;;;;;;5017863;28;20037;-84
2022/02/05 03:12:34;;;;;;;1.20;0.30;;;3.20;99.90;;;;;;5018700;28;20468;-85
2022/02/05 03:15:03;;;;;;;0.20;0.20;;;3.20;99.90;;;;;;5019316;28;20447;-84
2022/02/05 03:17:36;;;;;;;0.40;0.32;;;3.20;99.90;;;;;;5028004;28;20481;-83
2022/02/05 03:20:03;;;;;;;0.68;0.20;;;3.20;99.80;;;;;;5018495;28;20091;-83
2022/02/05 03:22:28;;;;;;;2.85;0.55;;;3.20;99.50;;;;;;5031361;28;20033;-84
2022/02/05 03:24:54;;;;;;;0.38;0.32;;;3.20;99.10;;;;;;5031333;28;20049;-82
2022/02/05 03:27:21;;;;;;;0.17;0.17;;;3.20;99.20;;;;;;5034432;28;20037;-81
2022/02/05 03:29:49;;;;;;;0.40;0.30;;;3.20;98.80;;;;;;5030479;28;20040;-83
2022/02/05 03:32:21;;;;;;;0.20;0.20;;;3.20;98.50;;;;;;5020358;28;20096;-83
2022/02/05 03:34:47;;;;;;;0.45;0.35;;;3.20;98.70;;;;;;5020365;28;20471;-83
2022/02/05 03:37:13;;;;;;;1.48;0.35;;;3.10;98.90;;;;;;5017758;28;20034;-83
2022/02/05 03:39:39;;;;;;;2.20;0.40;;;3.20;98.20;;;;;;5016227;28;20062;-83
2022/02/05 03:42:05;;;;;;;0.47;0.20;;;3.20;97.50;;;;;;5017215;28;20096;-84
2022/02/05 03:44:32;;;;;;;2.65;0.40;;;3.10;97.00;;;;;;5016933;28;20489;-82
2022/02/05 03:46:58;;;;;;;1.08;0.30;;;3.10;97.30;;;;;;5018295;28;20156;-85
2022/02/05 03:49:24;;;;;;;1.38;0.43;;;3.00;97.50;;;;;;5015994;28;20073;-84
2022/02/05 03:51:51;;;;;;;0.50;0.47;;;3.00;97.90;;;;;;5022619;28;20022;-84
2022/02/05 03:54:19;;;;;;;1.73;0.65;;;3.00;97.60;;;;;;5029934;28;20071;-85
2022/02/05 03:56:45;;;;;;;0.28;0.20;;;3.00;96.70;;;;;;5038614;28;20018;-84
2022/02/05 03:59:11;;;;;;;0.47;0.40;;;3.00;95.90;;;;;;5036225;28;20030;-84
2022/02/05 04:01:36;;;;;;;4.20;0.50;;;2.90;96.10;;;;;;5037764;28;20080;-84
2022/02/05 04:04:02;;;;;;;2.83;0.40;;;2.90;94.60;;;;;;5036307;28;20021;-85
2022/02/05 04:06:28;;;;;;;3.45;0.38;;;2.80;94.60;;;;;;5038162;28;20057;-84
2022/02/05 04:08:57;;;;;;;3.67;0.43;;;2.80;94.30;;;;;;5037130;28;20456;-84
2022/02/05 04:11:34;;;;;;;0.50;0.30;;;2.80;94.40;;;;;;5040045;28;20111;-85
2022/02/05 04:16:47;;;;;;;1.20;0.40;;;2.70;94.80;;;;;;5040071;28;20052;-85
2022/02/05 04:19:13;;;;;;;2.88;0.40;;;2.70;95.40;;;;;;5037917;28;20049;-84
2022/02/05 04:21:39;;;;;;;0.73;0.40;;;2.60;96.00;;;;;;5034147;28;20036;-85
2022/02/05 04:24:06;;;;;;;1.45;0.50;;;2.60;96.90;;;;;;5029670;28;20021;-85
2022/02/05 04:26:32;;;;;;;0.30;0.30;;;2.50;97.30;;;;;;5042069;28;20018;-84
2022/02/05 04:28:58;;;;;;;1.20;0.52;;;2.50;97.70;;;;;;5042842;28;20124;-84
2022/02/05 04:31:24;;;;;;;1.08;0.50;;;2.50;97.60;;;;;;5048447;28;20029;-84
2022/02/05 04:33:50;;;;;;;2.30;0.90;;;2.50;97.00;;;;;;5049855;28;20032;-83
2022/02/05 04:36:17;;;;;;;2.30;0.40;;;2.50;97.20;;;;;;5049416;28;20021;-83
2022/02/05 04:38:46;;;;;;;0.70;0.20;;;2.50;96.90;;;;;;5049721;28;20026;-82
2022/02/05 05:04:59;;;;;;;0.40;0.40;;;2.00;99.90;;;;;;5041562;28;20035;-83
2022/02/05 05:20:15;;;;;;;1.23;0.65;;;1.80;99.90;;;;;;5040539;28;20095;-85
2022/02/05 05:22:41;;;;;;;1.88;0.52;;;1.80;99.90;;;;;;5029989;28;20030;-85
2022/02/05 05:25:07;;;;;;;8.63;1.00;;;1.80;99.90;;;;;;5036930;28;20026;-84
2022/02/05 05:27:33;;;;;;;1.38;0.70;;;1.80;99.90;;;;;;5038832;28;20083;-84
2022/02/05 05:29:59;;;;;;;2.38;0.90;;;1.80;99.90;;;;;;5046511;28;20025;-83
2022/02/05 05:32:26;;;;;;;0.85;0.70;;;1.70;99.90;;;;;;5048210;28;20033;-81
2022/02/05 05:34:51;;;;;;;2.40;0.85;;;1.80;99.90;;;;;;5029433;28;20112;-81
2022/02/05 05:37:19;;;;;;;1.30;0.90;;;1.70;99.90;;;;;;5023762;28;20030;-83
2022/02/05 05:39:47;;;;;;;1.70;1.00;;;1.70;99.90;;;;;;5018615;28;20466;-82
2022/02/05 05:42:19;;;;;;;0.98;0.80;;;1.70;99.90;;;;;;5020463;28;20022;-84
2022/02/05 05:52:30;;;;;;;1.92;1.02;;;1.70;99.90;;;;;;5008933;28;20037;-81
2022/02/05 05:54:57;;;;;;;1.20;1.10;;;1.70;99.90;;;;;;5031282;28;20052;-82
2022/02/05 05:57:23;;;;;;;1.90;1.33;;;1.70;99.90;;;;;;5037463;28;20580;-79
2022/02/05 05:59:49;;;;;;;2.08;1.05;;;1.70;99.90;;;;;;5034078;28;20037;-83
2022/02/05 06:02:15;;;;;;;1.50;1.40;;;1.70;99.90;;;;;;5022817;28;20037;-82
2022/02/05 06:04:41;;;;;;;2.22;1.42;;;1.70;99.90;;;;;;5025303;28;20403;-83
2022/02/05 06:07:07;;;;;;;2.13;1.10;;;1.70;99.90;;;;;;5019810;28;20089;-81
2022/02/05 06:09:40;;;;;;;1.52;1.13;;;1.70;99.90;;;;;;5017736;28;20109;-84
2022/02/05 06:12:07;;;;;;;1.17;1.00;;;1.60;99.90;;;;;;5018527;28;20022;-84
2022/02/05 06:14:32;;;;;;;1.17;1.10;;;1.60;99.90;;;;;;5018434;28;20487;-86
2022/02/05 06:17:08;;;;;;;2.28;1.45;;;1.60;99.90;;;;;;5020060;28;20032;-81
2022/02/05 06:19:36;;;;;;;4.43;1.20;;;1.60;99.90;;;;;;5035523;28;20149;-77
2022/02/05 06:22:01;;;;;;;2.67;1.20;;;1.60;99.90;;;;;;5028698;28;20029;-81
2022/02/05 06:24:27;;;;;;;1.70;1.10;;;1.70;99.90;;;;;;5031649;28;20037;-81
2022/02/05 06:26:54;;;;;;;2.70;1.30;;;1.70;99.90;;;;;;5039710;28;20048;-81
2022/02/05 06:29:20;;;;;;;1.45;1.13;;;1.70;99.90;;;;;;5039102;28;20436;-80
2022/02/05 06:31:46;;;;;;;1.45;1.35;;;1.70;99.90;;;;;;5041385;28;20029;-80
2022/02/05 06:34:11;;;;;;;1.13;1.00;;;1.70;99.90;;;;;;5044023;28;20075;-80
2022/02/05 06:36:37;;;;;;;1.52;1.13;;;1.70;99.90;;;;;;5045807;28;20027;-81
2022/02/05 06:39:03;;;;;;;2.30;1.50;;;1.70;99.90;;;;;;5041361;28;20030;-81
2022/02/05 06:41:29;;;;;;;4.43;1.25;;;1.80;99.90;;;;;;5039991;28;20359;-81
2022/02/05 06:43:55;;;;;;;1.67;1.25;;;1.80;99.90;;;;;;5040157;28;20082;-80
2022/02/05 06:46:20;;;;;;;1.63;1.00;;;1.80;99.90;;;;;;5040549;28;20026;-80
2022/02/05 06:48:46;;;;;;;1.13;0.93;;;1.80;99.90;;;;;;5040601;28;20501;-81
2022/02/05 06:51:12;;;;;;;2.67;0.90;;;1.80;99.90;;;;;;5036296;28;20029;-81
2022/02/05 06:53:39;;;;;;;3.70;1.50;;;1.80;99.90;;;;;;5033508;28;20029;-80
2022/02/05 06:56:04;;;;;;;4.18;1.08;;;1.80;99.90;;;;;;5041547;28;20021;-81
2022/02/05 06:58:30;;;;;;;4.18;1.10;;;1.80;99.90;;;;;;5040682;28;20040;-80
2022/02/05 07:00:56;;;;;;;2.60;1.40;;;1.80;99.90;;;;;;5041357;28;20439;-79
2022/02/05 07:03:22;;;;;;;1.25;1.13;;;1.80;99.90;;;;;;5020325;28;20029;-81
2022/02/05 07:05:47;;;;;;;4.85;1.13;;;1.80;99.90;;;;;;5020649;28;20030;-82
2022/02/05 07:08:14;;;;;;;1.30;1.20;;;1.80;99.90;;;;;;5019996;28;20084;-82
2022/02/05 07:10:40;;;;;;;2.50;1.02;;;1.80;99.90;;;;;;5018468;28;20026;-81
2022/02/05 07:13:15;;;;;;;2.75;1.20;;;1.90;99.90;;;;;;5019458;28;20055;-81
2022/02/05 07:15:50;;;;;;;3.70;1.45;;;1.90;99.90;;;;;;5019444;28;20042;-81
2022/02/05 07:20:55;;;;;;;5.55;1.55;;;2.00;99.90;;;;;;5025094;28;20034;-81
2022/02/05 07:31:20;;;;;;;4.68;1.10;;;2.00;98.80;;;;;;5019563;28;20109;-82
2022/02/05 07:33:46;;;;;;;4.97;1.63;;;2.00;98.50;;;;;;5020096;28;20030;-82
2022/02/05 07:36:13;;;;;;;1.58;1.10;;;2.00;98.40;;;;;;5020534;28;20037;-81
2022/02/05 07:38:39;;;;;;;2.47;0.82;;;2.10;98.10;;;;;;5025592;28;20514;-80
2022/02/05 07:41:05;;;;;;;2.45;1.00;;;2.20;98.30;;;;;;5021370;28;20049;-82
2022/02/05 07:43:34;;;;;;;2.58;1.17;;;2.40;97.70;;;;;;5020823;28;20063;-81
2022/02/05 07:46:02;;;;;;;3.92;1.50;;;2.70;97.20;;;;;;5021703;28;20096;-81
2022/02/05 07:48:28;;;;;;;3.05;1.35;;;2.90;96.10;;;;;;5022741;28;20053;-81
2022/02/05 07:50:54;;;;;;;1.60;0.98;;;3.20;95.90;;;;;;5020826;28;20053;-81
2022/02/05 07:53:20;;;;;;;1.85;1.27;;;3.40;95.70;;;;;;5029821;28;20029;-81
2022/02/05 07:55:46;;;;;;;2.58;0.90;;;3.50;95.10;;;;;;5038354;28;20056;-80
2022/02/05 07:58:12;;;;;;;1.17;0.80;;;3.70;94.50;;;;;;5038988;28;20033;-82
2022/02/05 08:00:38;;;;;;;2.88;1.30;;;3.80;93.80;;;;;;5038693;28;20030;-82
2022/02/05 08:03:03;;;;;;;1.65;1.17;;;3.90;93.90;;;;;;5039681;28;20022;-80
2022/02/05 08:05:29;;;;;;;1.83;1.20;;;4.00;93.50;;;;;;5042350;28;20022;-82
2022/02/05 08:07:55;;;;;;;4.25;1.70;;;4.20;93.10;;;;;;5044715;28;20022;-81
2022/02/05 08:10:26;;;;;;;1.77;0.95;;;4.10;92.20;;;;;;5042941;28;20089;-83
2022/02/05 08:12:55;;;;;;;2.15;1.05;;;3.90;92.50;;;;;;5045771;28;20129;-80
2022/02/05 08:15:23;;;;;;;2.13;1.02;;;3.70;92.90;;;;;;5045396;28;20026;-82
2022/02/05 08:17:50;;;;;;;1.42;1.02;;;3.50;93.00;;;;;;5043275;28;20028;-80
2022/02/05 08:20:16;;;;;;;3.33;1.17;;;3.30;93.30;;;;;;5042035;28;20045;-82
2022/02/05 08:22:42;;;;;;;3.28;0.90;;;3.20;93.80;;;;;;5033782;28;20041;-81
2022/02/05 08:25:08;;;;;;;0.82;0.82;;;3.20;93.70;;;;;;5039893;28;20044;-82
2022/02/05 08:27:35;;;;;;;2.25;1.10;;;3.20;93.10;;;;;;5042585;28;20033;-80
2022/02/05 08:30:06;;;;;;;1.63;0.90;;;3.10;93.30;;;;;;5044405;28;20340;-82
2022/02/05 08:32:32;;;;;;;2.38;1.00;;;3.00;93.80;;;;;;5042424;28;20029;-81
2022/02/05 08:35:00;;;;;;;3.88;1.67;;;3.10;93.60;;;;;;5040943;28;20378;-82
2022/02/05 08:37:26;;;;;;;1.77;1.20;;;3.10;93.50;;;;;;5040678;28;20096;-82
2022/02/05 08:39:52;;;;;;;1.40;0.75;;;3.20;93.60;;;;;;5040390;28;20493;-80
2022/02/05 08:42:19;;;;;;;2.13;0.65;;;3.20;93.40;;;;;;5040263;28;20109;-83
2022/02/05 08:44:44;;;;;;;1.90;1.30;;;3.20;93.50;;;;;;5041177;28;20018;-79
2022/02/05 08:47:11;;;;;;;3.88;1.17;;;3.30;92.90;;;;;;5043806;28;20056;-81
2022/02/05 08:49:36;;;;;;;3.28;0.88;;;3.60;92.40;;;;;;5041246;28;20026;-81
2022/02/05 08:52:06;;;;;;;1.15;0.82;;;3.80;91.70;;;;;;5037422;28;20113;-84
2022/02/05 08:54:32;;;;;;;1.08;0.70;;;4.10;90.60;;;;;;5042713;28;20089;-81
2022/02/05 08:56:58;;;;;;;3.40;0.80;;;4.30;90.40;;;;;;5046193;28;20053;-83
2022/02/05 08:59:27;;;;;;;1.98;0.90;;;4.40;89.00;;;;;;5043498;28;20072;-83
2022/02/05 09:01:59;;;;;;;3.75;1.25;;;4.60;86.90;;;;;;5043645;28;20026;-83
2022/02/05 09:04:44;;;;;;;2.88;1.05;;;4.90;87.00;;;;;;5043257;28;20498;-83
2022/02/05 09:07:17;;;;;;;3.92;1.27;;;5.40;86.00;;;;;;5024612;22;20045;-81
2022/02/05 09:10:01;;;;;;;4.00;0.93;;;5.90;82.30;;;;;;5041646;28;20010;-78
2022/02/05 09:15:19;;;;;;;4.00;1.00;;;6.20;77.40;;;;;;5008957;28;20080;-82
2022/02/05 09:17:44;;;;;;;1.85;0.73;;;6.30;77.20;;;;;;5022921;28;20030;-82
2022/02/05 09:20:11;;;;;;;3.00;0.90;;;6.20;75.20;;;;;;5023666;28;20028;-81
2022/02/05 09:22:37;;;;;;;4.88;1.55;;;6.10;76.20;;;;;;5023323;28;20040;-83
2022/02/05 09:25:03;;;;;;;1.48;0.82;;;6.00;77.10;;;;;;5010585;28;20074;-82
2022/02/05 09:27:36;;;;;;;3.92;1.10;;;5.80;76.70;;;;;;5003777;28;20030;-81
2022/02/05 09:30:05;;;;;;;4.75;0.95;;;5.70;75.30;;;;;;5004540;28;20467;-83
2022/02/05 09:32:31;;;;;;;3.08;0.80;;;5.60;75.10;;;;;;5004191;28;20041;-84
2022/02/05 09:34:57;;;;;;;1.95;0.63;;;5.60;74.80;;;;;;5004525;28;20026;-82
2022/02/05 09:37:23;;;;;;;6.82;2.00;;;5.70;76.20;;;;;;5019271;28;20475;-83
2022/02/05 09:39:49;;;;;;;2.30;0.80;;;5.90;75.10;;;;;;5002871;28;20026;-83
2022/02/05 09:42:16;;;;;;;3.20;0.75;;;6.00;75.30;;;;;;5002488;28;20018;-84
2022/02/05 09:44:51;;;;;;;2.28;0.90;;;6.20;74.20;;;;;;5003833;28;20053;-85
2022/02/05 09:47:20;;;;;;;3.90;0.80;;;6.30;73.20;;;;;;5004777;28;20034;-84
2022/02/05 09:49:51;;;;;;;6.28;0.68;;;6.50;73.30;;;;;;5003510;28;20196;-82
2022/02/05 09:52:25;;;;;;;3.83;0.90;;;6.50;70.90;;;;;;5003748;28;20054;-83
2022/02/05 09:54:51;;;;;;;4.63;1.42;;;6.50;71.20;;;;;;5002841;28;20018;-83
2022/02/05 09:57:21;;;;;;;2.25;1.00;;;6.50;69.00;;;;;;5002007;28;20026;-83
2022/02/05 09:59:54;;;;;;;2.65;0.70;;;6.50;69.40;;;;;;5001438;28;20045;-85
2022/02/05 10:02:22;;;;;;;3.65;0.98;;;6.60;69.80;;;;;;5006487;28;20026;-83
2022/02/05 10:04:57;;;;;;;3.53;1.00;;;6.50;68.80;;;;;;5003229;28;20023;-83
2022/02/05 10:07:23;;;;;;;2.03;0.68;;;6.40;69.00;;;;;;5014922;28;20042;-84
2022/02/05 10:10:00;;;;;;;4.30;0.90;;;6.10;69.40;;;;;;5004781;28;20027;-82
2022/02/05 10:12:26;;;;;;;6.35;1.25;;;6.00;69.40;;;;;;5009633;28;20038;-79
2022/02/05 10:14:56;;;;;;;4.03;1.08;;;6.00;69.70;;;;;;5013873;28;20086;-82
2022/02/05 10:17:38;;;;;;;1.48;0.70;;;6.10;69.80;;;;;;5010907;28;20427;-83
2022/02/05 10:20:05;;;;;;;6.93;1.20;;;6.10;71.00;;;;;;5006673;28;20523;-83
2022/02/05 10:22:43;;;;;;;2.38;0.77;;;6.30;69.60;;;;;;5004692;28;20018;-84
2022/02/05 10:25:19;;;;;;;3.97;0.90;;;6.50;68.90;;;;;;5005307;28;20027;-83
2022/02/05 10:27:47;;;;;;;3.97;1.00;;;6.70;67.60;;;;;;5006488;28;20033;-82
2022/02/05 10:30:17;;;;;;;4.38;0.82;;;6.70;65.80;;;;;;5009704;28;20034;-82
2022/02/05 10:32:46;;;;;;;1.70;0.60;;;6.80;63.80;;;;;;5010551;28;20031;-82
2022/02/05 10:37:51;;;;;;;5.18;0.77;;;6.90;63.30;;;;;;5023636;28;20036;-84
2022/02/05 10:40:29;;;;;;;;;;;7.00;63.70;;;;;;5027702;28;20064;-82
2022/02/05 10:43:05;;;;;;;5.57;0.90;;;7.10;62.10;;;;;;5026225;28;19905;-83
2022/02/05 10:45:42;;;;;;;2.50;0.70;;;7.00;61.90;;;;;;5028360;28;20033;-83
2022/02/05 10:48:10;;;;;;;1.90;0.70;;;7.10;62.30;;;;;;5019841;28;20026;-84
2022/02/05 10:50:36;;;;;;;2.05;0.85;;;7.10;61.70;;;;;;5006360;28;20034;-84
2022/02/05 10:53:17;;;;;;;1.98;0.88;;;7.10;62.30;;;;;;5007580;28;20013;-82
2022/02/05 10:59:43;;;;;;;4.47;0.80;;;7.50;61.10;;;;;;5001946;28;20061;-80
2022/02/05 11:07:21;;;;;;;2.58;0.93;;;6.50;61.00;;;;;;5010001;28;20049;-80
2022/02/05 11:09:51;;;;;;;2.53;0.63;;;6.20;61.60;;;;;;5000623;28;20439;-81
2022/02/05 11:20:33;;;;;;;3.72;1.20;;;5.90;62.00;;;;;;4981521;28;20097;-81
2022/02/05 11:23:11;;;;;;;4.88;0.63;;;5.90;63.20;;;;;;4982233;28;20027;-82
2022/02/05 11:25:40;;;;;;;4.18;0.73;;;5.80;63.40;;;;;;4998106;28;20034;-82
2022/02/05 11:28:10;;;;;;;5.38;0.82;;;5.60;63.70;;;;;;4985805;28;20033;-81
2022/02/05 11:30:46;;;;;;;4.70;0.93;;;5.80;62.40;;;;;;4998364;28;20033;-80
2022/02/05 11:33:20;;;;;;;4.45;0.85;;;6.00;62.50;;;;;;5004859;28;20022;-82
2022/02/05 11:38:31;;;;;;;2.22;0.60;;;6.40;61.90;;;;;;5018755;28;20029;-80
2022/02/05 11:40:57;;;;;;;6.63;0.68;;;6.50;60.60;;;;;;4997720;28;20498;-81
2022/02/05 11:43:36;;;;;;;2.05;0.68;;;6.50;59.90;;;;;;4998442;28;20455;-80
2022/02/05 11:46:09;;;;;;;2.72;0.57;;;6.50;59.60;;;;;;4998218;28;20105;-80
2022/02/05 11:48:46;;;;;;;2.20;0.63;;;6.50;60.10;;;;;;4996222;28;20027;-81
2022/02/05 11:51:15;;;;;;;3.33;0.60;;;6.60;60.00;;;;;;4997943;28;20026;-80
2022/02/05 11:53:57;;;;;;;1.75;0.80;;;6.60;60.00;;;;;;4999292;28;20029;-80
2022/02/05 12:00:00;;;;;;;;;;;6.70;60.60;;;;;;4987999;28;20109;-79
2022/02/05 12:02:42;;;;;;;3.78;0.80;;;6.80;61.10;;;;;;5001429;28;19973;-79
2022/02/05 12:05:15;;;;;;;2.80;0.65;;;6.90;60.90;;;;;;5000941;28;20045;-79
2022/02/05 12:08:06;;;;;;;4.38;0.73;;;6.90;61.20;;;;;;5005337;28;20026;-80
2022/02/05 12:10:48;;;;;;;2.70;1.00;;;7.00;60.40;;;;;;5005369;28;20030;-80
2022/02/05 12:13:24;;;;;;;5.10;0.88;;;7.10;60.60;;;;;;4998757;28;20030;-80
2022/02/05 12:15:55;;;;;;;4.22;0.90;;;7.10;59.80;;;;;;4999646;28;20030;-79
2022/02/05 12:18:27;;;;;;;3.50;0.65;;;7.00;59.70;;;;;;4997541;28;20022;-80
2022/02/05 12:23:53;;;;;;;4.18;0.80;;;6.60;60.50;;;;;;4998682;28;20382;-79
2022/02/05 12:26:25;;;;;;;2.05;0.73;;;6.50;60.00;;;;;;4998555;28;20025;-80
2022/02/05 12:28:54;;;;;;;1.60;0.68;;;6.40;60.90;;;;;;4997571;28;20026;-80
2022/02/05 12:31:28;;;;;;;3.50;0.85;;;6.60;60.10;;;;;;4997563;28;20495;-80
2022/02/05 12:33:59;;;;;;;4.15;0.75;;;6.70;60.10;;;;;;4999059;28;20022;-80
2022/02/05 12:36:35;;;;;;;1.75;0.93;;;6.80;60.30;;;;;;5001005;28;20082;-79
2022/02/05 12:39:03;;;;;;;2.53;0.95;;;6.80;59.40;;;;;;5012461;28;20030;-79
2022/02/05 12:41:30;;;;;;;4.57;0.90;;;7.00;59.90;;;;;;5017053;28;20091;-80
2022/02/05 12:44:03;;;;;;;2.90;0.85;;;7.10;59.70;;;;;;5016968;28;20022;-79
2022/02/05 12:46:31;;;;;;;3.17;0.77;;;7.30;59.20;;;;;;5014304;28;20479;-78
2022/02/05 12:49:04;;;;;;;1.05;0.68;;;7.50;57.60;;;;;;5016902;28;20026;-80
2022/02/05 12:51:31;;;;;;;5.20;1.13;;;7.50;57.90;;;;;;5016802;28;20026;-80
2022/02/05 12:54:13;;;;;;;2.10;0.57;;;7.40;57.00;;;;;;5019447;28;20026;-81
2022/02/05 12:56:40;;;;;;;2.00;0.70;;;7.40;57.00;;;;;;5010578;28;20019;-80
2022/02/05 12:59:14;;;;;;;2.03;0.55;;;7.30;57.30;;;;;;4999189;28;20320;-80
2022/02/05 13:02:08;;;;;;;2.75;0.55;;;7.30;57.70;;;;;;4998512;28;20089;-80
2022/02/05 13:04:35;;;;;;;3.25;0.80;;;7.40;56.80;;;;;;4993885;28;20105;-80
2022/02/05 13:07:28;;;;;;;1.25;0.80;;;7.50;56.70;;;;;;5009871;28;20038;-81
2022/02/05 13:10:01;;;;;;;3.88;0.95;;;7.50;56.60;;;;;;5012236;28;20106;-78
2022/02/05 13:12:34;;;;;;;6.15;1.05;;;7.30;56.30;;;;;;5001193;28;20037;-80
2022/02/05 13:15:17;;;;;;;1.40;0.95;;;7.20;57.10;;;;;;5002266;28;20026;-79
2022/02/05 13:34:03;;;;;;;2.67;0.70;;;7.50;57.50;;;;;;4998275;28;20562;-79
2022/02/05 13:42:14;;;;;;;1.80;0.80;;;7.70;57.10;;;;;;4998346;28;20065;-80
2022/02/05 13:44:52;;;;;;;5.47;0.90;;;7.80;56.50;;;;;;4997577;28;20510;-79
2022/02/05 13:47:18;;;;;;;3.72;0.85;;;7.80;56.20;;;;;;4997310;28;20026;-79
2022/02/05 13:49:58;;;;;;;4.32;0.90;;;7.80;56.40;;;;;;4996240;28;20073;-80
2022/02/05 13:52:32;;;;;;;2.75;0.70;;;7.70;56.40;;;;;;4997717;28;20360;-79
2022/02/05 13:55:11;;;;;;;1.88;0.70;;;7.30;57.20;;;;;;4997404;28;20030;-79
2022/02/05 13:57:36;;;;;;;0.80;0.50;;;7.00;58.00;;;;;;5007608;28;20030;-79
2022/02/05 14:00:04;;;;;;;2.22;1.10;;;6.80;59.10;;;;;;5021031;28;20026;-80
2022/02/05 14:02:36;;;;;;;3.58;1.20;;;6.90;58.80;;;;;;5010980;28;20165;-81
2022/02/05 14:05:09;;;;;;;2.60;0.50;;;7.10;57.80;;;;;;5002779;28;20033;-80
2022/02/05 14:07:53;;;;;;;1.95;0.70;;;7.10;58.30;;;;;;5003647;28;20034;-80
2022/02/05 14:10:22;;;;;;;3.42;0.90;;;7.30;58.70;;;;;;5000822;28;20030;-80
2022/02/05 14:12:55;;;;;;;2.15;0.60;;;7.40;57.70;;;;;;5002464;28;20620;-79
2022/02/05 14:15:25;;;;;;;1.05;0.60;;;7.40;57.80;;;;;;4999703;28;20058;-80
2022/02/05 14:18:13;;;;;;;1.45;0.70;;;7.40;57.00;;;;;;5002169;28;20030;-79
2022/02/05 14:20:56;;;;;;;2.20;0.70;;;7.10;57.70;;;;;;5006534;28;20042;-81
2022/02/05 14:23:24;;;;;;;1.50;0.60;;;7.00;57.30;;;;;;5002897;28;20022;-81
2022/02/05 14:26:04;;;;;;;2.90;0.70;;;7.00;57.10;;;;;;5002137;28;20081;-79
2022/02/05 14:28:45;;;;;;;1.88;0.73;;;6.90;56.90;;;;;;5003249;28;20084;-82
2022/02/05 14:31:17;;;;;;;3.83;1.10;;;6.90;57.20;;;;;;5002300;28;20089;-80
2022/02/05 14:41:57;;;;;;;3.35;2.03;;;6.70;59.00;;;;;;4999430;28;20076;-78
2022/02/05 14:44:23;;;;;;;3.83;0.90;;;6.80;58.70;;;;;;5000024;28;20018;-79
2022/02/05 14:46:49;;;;;;;3.95;2.40;;;6.80;58.90;;;;;;5000200;28;20029;-77
2022/02/05 14:49:15;;;;;;;10.13;4.60;;;6.80;58.20;;;;;;5000100;28;20022;-79
2022/02/05 14:51:42;;;;;;;36.20;14.93;;;6.70;58.60;;;;;;4999129;28;20042;-79
2022/02/05 14:54:08;;;;;;;4.63;2.40;;;6.70;58.50;;;;;;5000586;28;20019;-79
2022/02/05 14:56:34;;;;;;;4.68;1.83;;;6.60;58.80;;;;;;4998999;28;20479;-79
2022/02/05 14:59:00;;;;;;;6.07;1.63;;;6.50;58.80;;;;;;5000338;28;20396;-78
2022/02/05 15:01:26;;;;;;;8.15;5.20;;;6.40;59.50;;;;;;4998527;28;20097;-79
2022/02/05 15:03:57;;;;;;;1.80;1.70;;;6.40;59.80;;;;;;4998345;28;20022;-80
2022/02/05 15:06:26;;;;;;;6.07;4.28;;;6.30;59.90;;;;;;5011344;28;20106;-82
2022/02/05 15:08:53;;;;;;;3.28;1.92;;;6.20;60.30;;;;;;5009997;28;20037;-81
2022/02/05 15:11:20;;;;;;;2.53;1.17;;;6.10;60.70;;;;;;5004863;28;20060;-83
2022/02/05 15:13:47;;;;;;;6.38;3.55;;;6.00;61.00;;;;;;5005563;28;20118;-81
2022/02/05 15:16:17;;;;;;;6.68;2.42;;;6.00;60.40;;;;;;5006227;28;20026;-83
2022/02/05 15:18:51;;;;;;;7.82;3.53;;;6.00;60.70;;;;;;5004447;28;20018;-82
2022/02/05 15:21:17;;;;;;;5.80;4.28;;;6.00;61.00;;;;;;5004611;28;20054;-82
2022/02/05 15:23:42;;;;;;;4.63;3.70;;;5.80;61.40;;;;;;5007888;28;20033;-82
2022/02/05 15:26:08;;;;;;;9.38;4.22;;;5.70;61.70;;;;;;5006980;28;20022;-83
2022/02/05 15:28:34;;;;;;;2.95;1.40;;;5.70;61.90;;;;;;5005367;28;20034;-83
2022/02/05 15:31:02;;;;;;;3.15;0.90;;;5.70;62.30;;;;;;5006126;28;20030;-83
2022/02/05 15:33:28;;;;;;;22.90;12.60;;;5.60;62.60;;;;;;5004864;28;20022;-82
2022/02/05 15:35:59;;;;;;;14.23;8.32;;;5.50;63.00;;;;;;5005212;28;20035;-81
2022/02/05 15:38:35;;;;;;;16.00;10.90;;;5.40;63.30;;;;;;5013311;28;20032;-83
2022/02/05 15:46:05;;;;;;;1.75;0.75;;;5.40;63.10;;;;;;5003092;28;20085;-81
2022/02/05 15:48:31;;;;;;;0.98;0.50;;;5.40;63.40;;;;;;5003333;28;20018;-82
2022/02/05 15:50:56;;;;;;;0.73;0.52;;;5.30;63.80;;;;;;5003603;28;20027;-81
2022/02/05 15:53:22;;;;;;;3.53;0.98;;;5.30;64.40;;;;;;5004927;28;20038;-83
2022/02/05 15:55:48;;;;;;;3.90;1.10;;;5.20;64.60;;;;;;5004543;28;20498;-83
2022/02/05 15:58:20;;;;;;;3.28;0.90;;;5.20;65.00;;;;;;5004260;28;20035;-83
2022/02/05 16:00:46;;;;;;;1.40;0.57;;;5.30;64.90;;;;;;5003699;28;20038;-83
2022/02/05 16:03:14;;;;;;;3.38;0.73;;;5.30;64.90;;;;;;5004858;28;20027;-84
2022/02/05 16:05:43;;;;;;;2.08;0.80;;;5.20;65.10;;;;;;5009080;28;20029;-84
2022/02/05 16:08:09;;;;;;;3.38;0.85;;;5.20;65.30;;;;;;5014166;28;20080;-81
2022/02/05 16:10:35;;;;;;;3.00;0.90;;;5.10;65.60;;;;;;5008083;28;20082;-81
2022/02/05 16:13:01;;;;;;;7.00;1.00;;;5.00;66.00;;;;;;5007072;28;20030;-80
2022/02/05 16:15:26;;;;;;;4.10;0.82;;;5.00;66.40;;;;;;5015669;28;20030;-80
2022/02/05 16:17:52;;;;;;;3.10;0.82;;;4.90;66.80;;;;;;5013490;28;20042;-82
2022/02/05 16:20:21;;;;;;;5.88;4.20;;;4.80;67.20;;;;;;5004072;28;20034;-79
2022/02/05 16:22:47;;;;;;;11.75;6.22;;;4.80;67.40;;;;;;5003435;28;20038;-81
2022/02/05 16:25:14;;;;;;;17.48;9.02;;;4.80;67.50;;;;;;5001468;28;20026;-81
2022/02/05 16:27:42;;;;;;;11.52;5.53;;;4.70;67.70;;;;;;4998942;28;20028;-82
2022/02/05 16:30:09;;;;;;;5.35;3.15;;;4.70;67.60;;;;;;5013767;28;20034;-79
2022/02/05 16:32:36;;;;;;;5.93;2.50;;;4.70;67.60;;;;;;5007481;28;20062;-81
2022/02/05 16:35:07;;;;;;;2.40;1.42;;;4.70;68.00;;;;;;4999818;28;20022;-82
2022/02/05 16:37:36;;;;;;;4.53;1.15;;;4.60;68.20;;;;;;5011038;28;20093;-81
2022/02/05 16:40:04;;;;;;;5.88;1.25;;;4.60;68.40;;;;;;5003374;28;20026;-78
2022/02/05 16:42:33;;;;;;;2.78;1.35;;;4.60;68.60;;;;;;4996356;28;20029;-78
2022/02/05 16:44:59;;;;;;;6.90;2.10;;;4.50;68.50;;;;;;4996707;28;20025;-79
2022/02/05 16:47:25;;;;;;;5.35;1.98;;;4.50;68.80;;;;;;4996630;28;20022;-80